sensor_id;sensor_type;location;lat;lon;timestamp;P1;durP1;ratioP1;P2;durP2;ratioP2
1428;SDS011;708;51.442;7.016;2022-07-04T00:01:41;5.50;;;3.25;;
1428;SDS011;708;51.442;7.016;2022-07-04T00:04:08;4.00;;;2.40;;
1428;SDS011;708;51.442;7.016;2022-07-04T00:06:35;4.20;;;2.70;;
1428;SDS011;708;51.442;7.016;2022-07-04T00:09:03;4.28;;;2.65;;
1428;SDS011;708;51.442;7.016;2022-07-04T00:11:30;4.55;;;2.42;;
1428;SDS011;708;51.442;7.016;2022-07-04T00:13:57;2.95;;;1.60;;
1428;SDS011;708;51.442;7.016;2022-07-04T00:16:24;3.97;;;1.92;;
1428;SDS011;708;51.442;7.016;2022-07-04T00:18:51;3.78;;;1.95;;
1428;SDS011;708;51.442;7.016;2022-07-04T00:21:18;4.57;;;2.00;;
1428;SDS011;708;51.442;7.016;2022-07-04T00:23:45;9.77;;;2.67;;
1428;SDS011;708;51.442;7.016;2022-07-04T00:26:13;4.53;;;2.55;;
1428;SDS011;708;51.442;7.016;2022-07-04T00:28:39;5.28;;;2.42;;
1428;SDS011;708;51.442;7.016;2022-07-04T00:31:06;6.38;;;2.60;;
1428;SDS011;708;51.442;7.016;2022-07-04T00:33:33;3.75;;;2.28;;
1428;SDS011;708;51.442;7.016;2022-07-04T00:36:00;4.85;;;2.42;;
1428;SDS011;708;51.442;7.016;2022-07-04T00:38:27;5.32;;;2.33;;
1428;SDS011;708;51.442;7.016;2022-07-04T00:40:54;4.57;;;2.30;;
1428;SDS011;708;51.442;7.016;2022-07-04T00:43:26;2.70;;;2.03;;
1428;SDS011;708;51.442;7.016;2022-07-04T00:45:54;4.72;;;2.60;;
1428;SDS011;708;51.442;7.016;2022-07-04T00:48:21;3.95;;;3.08;;
1428;SDS011;708;51.442;7.016;2022-07-04T00:50:51;5.97;;;3.00;;
1428;SDS011;708;51.442;7.016;2022-07-04T00:53:18;3.40;;;2.45;;
1428;SDS011;708;51.442;7.016;2022-07-04T00:55:50;2.83;;;2.05;;
1428;SDS011;708;51.442;7.016;2022-07-04T00:58:19;5.15;;;2.55;;
1428;SDS011;708;51.442;7.016;2022-07-04T01:00:48;5.43;;;3.03;;
1428;SDS011;708;51.442;7.016;2022-07-04T01:03:15;2.88;;;2.20;;
1428;SDS011;708;51.442;7.016;2022-07-04T01:05:42;5.70;;;2.80;;
1428;SDS011;708;51.442;7.016;2022-07-04T01:08:10;5.00;;;3.08;;
1428;SDS011;708;51.442;7.016;2022-07-04T01:10:38;4.13;;;2.63;;
1428;SDS011;708;51.442;7.016;2022-07-04T01:13:04;4.03;;;2.60;;
1428;SDS011;708;51.442;7.016;2022-07-04T01:15:31;3.40;;;2.65;;
1428;SDS011;708;51.442;7.016;2022-07-04T01:17:59;5.30;;;2.95;;
1428;SDS011;708;51.442;7.016;2022-07-04T01:20:32;4.20;;;2.20;;
1428;SDS011;708;51.442;7.016;2022-07-04T01:23:01;6.03;;;2.47;;
1428;SDS011;708;51.442;7.016;2022-07-04T01:25:28;5.55;;;2.72;;
1428;SDS011;708;51.442;7.016;2022-07-04T01:27:55;2.85;;;2.05;;
1428;SDS011;708;51.442;7.016;2022-07-04T01:30:22;4.45;;;2.20;;
1428;SDS011;708;51.442;7.016;2022-07-04T01:32:49;3.58;;;2.40;;
1428;SDS011;708;51.442;7.016;2022-07-04T01:35:15;3.63;;;2.22;;
1428;SDS011;708;51.442;7.016;2022-07-04T01:37:44;3.20;;;2.58;;
1428;SDS011;708;51.442;7.016;2022-07-04T01:40:11;5.70;;;2.50;;
1428;SDS011;708;51.442;7.016;2022-07-04T01:42:38;4.88;;;2.83;;
1428;SDS011;708;51.442;7.016;2022-07-04T01:45:06;3.80;;;2.53;;
1428;SDS011;708;51.442;7.016;2022-07-04T01:47:34;5.70;;;2.75;;
1428;SDS011;708;51.442;7.016;2022-07-04T01:50:02;6.45;;;2.05;;
1428;SDS011;708;51.442;7.016;2022-07-04T01:52:30;3.95;;;2.50;;
1428;SDS011;708;51.442;7.016;2022-07-04T01:54:59;3.08;;;2.13;;
1428;SDS011;708;51.442;7.016;2022-07-04T01:57:26;3.00;;;2.67;;
1428;SDS011;708;51.442;7.016;2022-07-04T01:59:53;3.58;;;2.22;;
1428;SDS011;708;51.442;7.016;2022-07-04T02:02:37;4.45;;;2.47;;
1428;SDS011;708;51.442;7.016;2022-07-04T02:05:04;5.70;;;2.78;;
1428;SDS011;708;51.442;7.016;2022-07-04T02:07:32;4.07;;;2.72;;
1428;SDS011;708;51.442;7.016;2022-07-04T02:10:01;5.47;;;3.80;;
1428;SDS011;708;51.442;7.016;2022-07-04T02:12:28;5.75;;;3.00;;
1428;SDS011;708;51.442;7.016;2022-07-04T02:15:27;5.45;;;3.45;;
1428;SDS011;708;51.442;7.016;2022-07-04T02:17:55;5.75;;;3.10;;
1428;SDS011;708;51.442;7.016;2022-07-04T02:20:22;4.28;;;2.40;;
1428;SDS011;708;51.442;7.016;2022-07-04T02:22:50;4.95;;;3.10;;
1428;SDS011;708;51.442;7.016;2022-07-04T02:25:18;3.08;;;2.65;;
1428;SDS011;708;51.442;7.016;2022-07-04T02:27:45;4.40;;;2.88;;
1428;SDS011;708;51.442;7.016;2022-07-04T02:30:12;4.25;;;2.83;;
1428;SDS011;708;51.442;7.016;2022-07-04T02:32:39;4.80;;;2.80;;
1428;SDS011;708;51.442;7.016;2022-07-04T02:35:06;4.13;;;2.70;;
1428;SDS011;708;51.442;7.016;2022-07-04T02:37:34;6.18;;;4.72;;
1428;SDS011;708;51.442;7.016;2022-07-04T02:40:02;7.78;;;3.75;;
1428;SDS011;708;51.442;7.016;2022-07-04T02:42:30;3.42;;;2.72;;
1428;SDS011;708;51.442;7.016;2022-07-04T02:44:58;7.43;;;3.30;;
1428;SDS011;708;51.442;7.016;2022-07-04T02:47:25;6.38;;;3.20;;
1428;SDS011;708;51.442;7.016;2022-07-04T02:49:53;8.48;;;4.47;;
1428;SDS011;708;51.442;7.016;2022-07-04T02:52:20;7.78;;;4.80;;
1428;SDS011;708;51.442;7.016;2022-07-04T02:54:46;4.53;;;3.50;;
1428;SDS011;708;51.442;7.016;2022-07-04T02:57:14;2.92;;;2.33;;
1428;SDS011;708;51.442;7.016;2022-07-04T02:59:42;8.00;;;4.60;;
1428;SDS011;708;51.442;7.016;2022-07-04T03:02:10;4.07;;;2.35;;
1428;SDS011;708;51.442;7.016;2022-07-04T03:04:36;4.18;;;2.72;;
1428;SDS011;708;51.442;7.016;2022-07-04T03:07:05;4.35;;;2.50;;
1428;SDS011;708;51.442;7.016;2022-07-04T03:09:33;7.13;;;3.80;;
1428;SDS011;708;51.442;7.016;2022-07-04T03:11:59;3.83;;;2.35;;
1428;SDS011;708;51.442;7.016;2022-07-04T03:14:26;4.53;;;3.05;;
1428;SDS011;708;51.442;7.016;2022-07-04T03:16:54;10.80;;;4.07;;
1428;SDS011;708;51.442;7.016;2022-07-04T03:19:21;4.38;;;3.30;;
1428;SDS011;708;51.442;7.016;2022-07-04T03:21:48;6.55;;;3.30;;
1428;SDS011;708;51.442;7.016;2022-07-04T03:24:15;9.30;;;5.45;;
1428;SDS011;708;51.442;7.016;2022-07-04T03:26:42;5.80;;;4.40;;
1428;SDS011;708;51.442;7.016;2022-07-04T03:29:09;4.20;;;3.78;;
1428;SDS011;708;51.442;7.016;2022-07-04T03:31:36;7.88;;;4.28;;
1428;SDS011;708;51.442;7.016;2022-07-04T03:34:04;5.15;;;4.22;;
1428;SDS011;708;51.442;7.016;2022-07-04T03:36:31;9.88;;;4.60;;
1428;SDS011;708;51.442;7.016;2022-07-04T03:38:58;8.15;;;3.25;;
1428;SDS011;708;51.442;7.016;2022-07-04T03:41:24;8.73;;;5.00;;
1428;SDS011;708;51.442;7.016;2022-07-04T03:43:51;11.75;;;5.63;;
1428;SDS011;708;51.442;7.016;2022-07-04T03:46:18;8.82;;;4.57;;
1428;SDS011;708;51.442;7.016;2022-07-04T03:48:45;8.43;;;4.45;;
1428;SDS011;708;51.442;7.016;2022-07-04T03:51:13;6.30;;;4.07;;
1428;SDS011;708;51.442;7.016;2022-07-04T03:53:40;7.63;;;4.32;;
1428;SDS011;708;51.442;7.016;2022-07-04T03:56:07;6.35;;;3.40;;
1428;SDS011;708;51.442;7.016;2022-07-04T03:58:35;5.72;;;3.70;;
1428;SDS011;708;51.442;7.016;2022-07-04T04:01:02;6.85;;;4.15;;
1428;SDS011;708;51.442;7.016;2022-07-04T04:03:29;4.35;;;3.25;;
1428;SDS011;708;51.442;7.016;2022-07-04T04:06:15;7.07;;;4.10;;
1428;SDS011;708;51.442;7.016;2022-07-04T04:08:42;8.27;;;4.20;;
1428;SDS011;708;51.442;7.016;2022-07-04T04:11:09;4.82;;;2.75;;
1428;SDS011;708;51.442;7.016;2022-07-04T04:13:36;8.07;;;3.67;;
1428;SDS011;708;51.442;7.016;2022-07-04T04:16:03;6.15;;;3.80;;
1428;SDS011;708;51.442;7.016;2022-07-04T04:18:30;4.45;;;2.88;;
1428;SDS011;708;51.442;7.016;2022-07-04T04:20:56;8.82;;;4.07;;
1428;SDS011;708;51.442;7.016;2022-07-04T04:23:25;6.82;;;3.55;;
1428;SDS011;708;51.442;7.016;2022-07-04T04:25:51;8.95;;;4.05;;
1428;SDS011;708;51.442;7.016;2022-07-04T04:28:18;8.43;;;4.00;;
1428;SDS011;708;51.442;7.016;2022-07-04T04:30:45;6.90;;;3.70;;
1428;SDS011;708;51.442;7.016;2022-07-04T04:33:12;7.18;;;4.35;;
1428;SDS011;708;51.442;7.016;2022-07-04T04:35:39;5.85;;;3.80;;
1428;SDS011;708;51.442;7.016;2022-07-04T04:38:08;3.63;;;3.03;;
1428;SDS011;708;51.442;7.016;2022-07-04T04:40:36;9.13;;;3.33;;
1428;SDS011;708;51.442;7.016;2022-07-04T04:43:03;5.45;;;4.38;;
1428;SDS011;708;51.442;7.016;2022-07-04T04:45:30;4.40;;;3.60;;
1428;SDS011;708;51.442;7.016;2022-07-04T04:47:56;4.40;;;2.95;;
1428;SDS011;708;51.442;7.016;2022-07-04T04:50:23;7.63;;;3.65;;
1428;SDS011;708;51.442;7.016;2022-07-04T04:52:50;7.55;;;4.55;;
1428;SDS011;708;51.442;7.016;2022-07-04T04:55:17;4.85;;;3.70;;
1428;SDS011;708;51.442;7.016;2022-07-04T04:57:45;5.60;;;3.58;;
1428;SDS011;708;51.442;7.016;2022-07-04T05:00:12;4.38;;;3.15;;
1428;SDS011;708;51.442;7.016;2022-07-04T05:02:39;5.33;;;3.70;;
1428;SDS011;708;51.442;7.016;2022-07-04T05:05:07;5.23;;;3.60;;
1428;SDS011;708;51.442;7.016;2022-07-04T05:07:34;4.90;;;3.60;;
1428;SDS011;708;51.442;7.016;2022-07-04T05:10:01;4.87;;;2.90;;
1428;SDS011;708;51.442;7.016;2022-07-04T05:12:29;5.87;;;3.73;;
1428;SDS011;708;51.442;7.016;2022-07-04T05:14:57;4.00;;;3.43;;
1428;SDS011;708;51.442;7.016;2022-07-04T05:17:24;5.80;;;3.50;;
1428;SDS011;708;51.442;7.016;2022-07-04T05:19:51;7.07;;;3.83;;
1428;SDS011;708;51.442;7.016;2022-07-04T05:22:18;4.03;;;3.33;;
1428;SDS011;708;51.442;7.016;2022-07-04T05:24:45;4.67;;;3.03;;
1428;SDS011;708;51.442;7.016;2022-07-04T05:27:11;4.97;;;2.80;;
1428;SDS011;708;51.442;7.016;2022-07-04T05:29:39;5.73;;;2.67;;
1428;SDS011;708;51.442;7.016;2022-07-04T05:32:07;5.03;;;3.50;;
1428;SDS011;708;51.442;7.016;2022-07-04T05:34:34;5.13;;;2.57;;
1428;SDS011;708;51.442;7.016;2022-07-04T05:37:02;4.97;;;2.73;;
1428;SDS011;708;51.442;7.016;2022-07-04T05:39:30;2.87;;;2.20;;
1428;SDS011;708;51.442;7.016;2022-07-04T05:41:57;4.90;;;2.37;;
1428;SDS011;708;51.442;7.016;2022-07-04T05:44:23;4.00;;;2.60;;
1428;SDS011;708;51.442;7.016;2022-07-04T05:46:50;3.20;;;1.80;;
1428;SDS011;708;51.442;7.016;2022-07-04T05:49:18;4.17;;;1.97;;
1428;SDS011;708;51.442;7.016;2022-07-04T05:51:45;2.43;;;1.60;;
1428;SDS011;708;51.442;7.016;2022-07-04T05:54:12;4.30;;;2.57;;
1428;SDS011;708;51.442;7.016;2022-07-04T05:56:39;4.43;;;2.13;;
1428;SDS011;708;51.442;7.016;2022-07-04T05:59:07;3.70;;;2.07;;
1428;SDS011;708;51.442;7.016;2022-07-04T06:01:34;2.57;;;1.43;;
1428;SDS011;708;51.442;7.016;2022-07-04T06:04:01;3.83;;;1.80;;
1428;SDS011;708;51.442;7.016;2022-07-04T06:06:29;2.43;;;1.60;;
1428;SDS011;708;51.442;7.016;2022-07-04T06:08:56;4.40;;;2.17;;
1428;SDS011;708;51.442;7.016;2022-07-04T06:11:23;8.63;;;4.83;;
1428;SDS011;708;51.442;7.016;2022-07-04T06:13:50;4.50;;;3.57;;
1428;SDS011;708;51.442;7.016;2022-07-04T06:16:17;6.50;;;4.10;;
1428;SDS011;708;51.442;7.016;2022-07-04T06:18:44;8.77;;;4.33;;
1428;SDS011;708;51.442;7.016;2022-07-04T06:21:11;5.50;;;3.57;;
1428;SDS011;708;51.442;7.016;2022-07-04T06:23:39;5.90;;;3.23;;
1428;SDS011;708;51.442;7.016;2022-07-04T06:26:06;5.10;;;2.73;;
1428;SDS011;708;51.442;7.016;2022-07-04T06:28:34;7.47;;;1.83;;
1428;SDS011;708;51.442;7.016;2022-07-04T06:31:01;2.90;;;2.10;;
1428;SDS011;708;51.442;7.016;2022-07-04T06:33:27;2.73;;;1.80;;
1428;SDS011;708;51.442;7.016;2022-07-04T06:35:54;4.37;;;2.40;;
1428;SDS011;708;51.442;7.016;2022-07-04T06:38:21;3.73;;;2.10;;
1428;SDS011;708;51.442;7.016;2022-07-04T06:40:53;4.63;;;2.37;;
1428;SDS011;708;51.442;7.016;2022-07-04T06:43:20;3.17;;;1.50;;
1428;SDS011;708;51.442;7.016;2022-07-04T06:45:47;2.67;;;1.33;;
1428;SDS011;708;51.442;7.016;2022-07-04T06:48:14;3.90;;;1.90;;
1428;SDS011;708;51.442;7.016;2022-07-04T06:50:41;3.90;;;1.90;;
1428;SDS011;708;51.442;7.016;2022-07-04T06:53:08;4.03;;;1.33;;
1428;SDS011;708;51.442;7.016;2022-07-04T06:55:35;5.20;;;2.80;;
1428;SDS011;708;51.442;7.016;2022-07-04T06:58:05;3.50;;;2.30;;
1428;SDS011;708;51.442;7.016;2022-07-04T07:00:33;4.10;;;2.33;;
1428;SDS011;708;51.442;7.016;2022-07-04T07:03:01;4.67;;;2.10;;
1428;SDS011;708;51.442;7.016;2022-07-04T07:05:29;2.90;;;1.07;;
1428;SDS011;708;51.442;7.016;2022-07-04T07:07:56;4.13;;;1.80;;
1428;SDS011;708;51.442;7.016;2022-07-04T07:10:26;3.70;;;1.73;;
1428;SDS011;708;51.442;7.016;2022-07-04T07:12:53;3.03;;;1.73;;
1428;SDS011;708;51.442;7.016;2022-07-04T07:15:22;2.77;;;1.93;;
1428;SDS011;708;51.442;7.016;2022-07-04T07:17:49;3.20;;;1.33;;
1428;SDS011;708;51.442;7.016;2022-07-04T07:20:15;2.77;;;1.40;;
1428;SDS011;708;51.442;7.016;2022-07-04T07:22:42;3.57;;;1.40;;
1428;SDS011;708;51.442;7.016;2022-07-04T07:25:09;3.00;;;1.70;;
1428;SDS011;708;51.442;7.016;2022-07-04T07:27:37;2.50;;;1.20;;
1428;SDS011;708;51.442;7.016;2022-07-04T07:30:05;2.93;;;1.10;;
1428;SDS011;708;51.442;7.016;2022-07-04T07:32:35;1.90;;;1.10;;
1428;SDS011;708;51.442;7.016;2022-07-04T07:35:01;2.77;;;1.43;;
1428;SDS011;708;51.442;7.016;2022-07-04T07:37:29;7.90;;;1.10;;
1428;SDS011;708;51.442;7.016;2022-07-04T07:39:56;3.60;;;1.60;;
1428;SDS011;708;51.442;7.016;2022-07-04T07:42:23;3.67;;;2.10;;
1428;SDS011;708;51.442;7.016;2022-07-04T07:44:50;4.80;;;1.97;;
1428;SDS011;708;51.442;7.016;2022-07-04T07:47:17;2.77;;;1.03;;
1428;SDS011;708;51.442;7.016;2022-07-04T07:49:45;2.17;;;1.13;;
1428;SDS011;708;51.442;7.016;2022-07-04T07:52:13;2.90;;;1.00;;
1428;SDS011;708;51.442;7.016;2022-07-04T07:54:40;2.80;;;1.07;;
1428;SDS011;708;51.442;7.016;2022-07-04T07:57:07;2.90;;;1.20;;
1428;SDS011;708;51.442;7.016;2022-07-04T07:59:34;2.70;;;0.90;;
1428;SDS011;708;51.442;7.016;2022-07-04T08:02:01;4.30;;;1.60;;
1428;SDS011;708;51.442;7.016;2022-07-04T08:04:28;2.47;;;1.07;;
1428;SDS011;708;51.442;7.016;2022-07-04T08:07:02;2.33;;;1.03;;
1428;SDS011;708;51.442;7.016;2022-07-04T08:09:30;2.37;;;1.17;;
1428;SDS011;708;51.442;7.016;2022-07-04T08:11:57;3.10;;;1.30;;
1428;SDS011;708;51.442;7.016;2022-07-04T08:14:24;2.27;;;1.00;;
1428;SDS011;708;51.442;7.016;2022-07-04T08:16:51;2.17;;;1.20;;
1428;SDS011;708;51.442;7.016;2022-07-04T08:19:18;1.60;;;1.00;;
1428;SDS011;708;51.442;7.016;2022-07-04T08:21:44;4.47;;;1.70;;
1428;SDS011;708;51.442;7.016;2022-07-04T08:24:14;4.13;;;1.43;;
1428;SDS011;708;51.442;7.016;2022-07-04T08:26:41;2.07;;;1.07;;
1428;SDS011;708;51.442;7.016;2022-07-04T08:29:08;2.23;;;1.03;;
1428;SDS011;708;51.442;7.016;2022-07-04T08:31:35;2.83;;;1.13;;
1428;SDS011;708;51.442;7.016;2022-07-04T08:34:02;1.30;;;0.70;;
1428;SDS011;708;51.442;7.016;2022-07-04T08:36:29;4.20;;;1.27;;
1428;SDS011;708;51.442;7.016;2022-07-04T08:38:56;3.80;;;1.53;;
1428;SDS011;708;51.442;7.016;2022-07-04T08:41:24;2.53;;;1.00;;
1428;SDS011;708;51.442;7.016;2022-07-04T08:43:52;3.93;;;1.40;;
1428;SDS011;708;51.442;7.016;2022-07-04T08:46:21;3.33;;;1.27;;
1428;SDS011;708;51.442;7.016;2022-07-04T08:48:53;3.83;;;1.70;;
1428;SDS011;708;51.442;7.016;2022-07-04T08:51:27;2.70;;;1.20;;
1428;SDS011;708;51.442;7.016;2022-07-04T08:54:02;5.50;;;1.40;;
1428;SDS011;708;51.442;7.016;2022-07-04T08:56:53;2.53;;;1.23;;
1428;SDS011;708;51.442;7.016;2022-07-04T08:59:38;2.60;;;1.20;;
1428;SDS011;708;51.442;7.016;2022-07-04T09:02:10;1.80;;;0.90;;
1428;SDS011;708;51.442;7.016;2022-07-04T09:04:39;2.53;;;1.17;;
1428;SDS011;708;51.442;7.016;2022-07-04T09:07:09;6.00;;;1.37;;
1428;SDS011;708;51.442;7.016;2022-07-04T09:09:37;2.83;;;1.57;;
1428;SDS011;708;51.442;7.016;2022-07-04T09:12:07;2.20;;;1.23;;
1428;SDS011;708;51.442;7.016;2022-07-04T09:14:35;2.80;;;1.30;;
1428;SDS011;708;51.442;7.016;2022-07-04T09:17:02;3.77;;;1.00;;
1428;SDS011;708;51.442;7.016;2022-07-04T09:19:30;2.03;;;1.10;;
1428;SDS011;708;51.442;7.016;2022-07-04T09:21:57;2.13;;;1.10;;
1428;SDS011;708;51.442;7.016;2022-07-04T09:24:45;4.50;;;2.17;;
1428;SDS011;708;51.442;7.016;2022-07-04T09:29:58;2.90;;;1.40;;
1428;SDS011;708;51.442;7.016;2022-07-04T09:32:32;2.67;;;1.47;;
1428;SDS011;708;51.442;7.016;2022-07-04T09:35:01;3.60;;;1.73;;
1428;SDS011;708;51.442;7.016;2022-07-04T09:37:38;2.03;;;1.20;;
1428;SDS011;708;51.442;7.016;2022-07-04T09:40:10;7.20;;;2.00;;
1428;SDS011;708;51.442;7.016;2022-07-04T09:42:48;2.80;;;1.30;;
1428;SDS011;708;51.442;7.016;2022-07-04T09:45:14;3.00;;;1.20;;
1428;SDS011;708;51.442;7.016;2022-07-04T09:47:44;2.87;;;1.50;;
1428;SDS011;708;51.442;7.016;2022-07-04T09:50:12;2.27;;;1.30;;
1428;SDS011;708;51.442;7.016;2022-07-04T09:52:47;2.17;;;1.20;;
1428;SDS011;708;51.442;7.016;2022-07-04T09:55:25;1.77;;;1.00;;
1428;SDS011;708;51.442;7.016;2022-07-04T09:57:55;2.77;;;1.60;;
1428;SDS011;708;51.442;7.016;2022-07-04T10:00:24;2.77;;;1.40;;
1428;SDS011;708;51.442;7.016;2022-07-04T10:02:53;2.50;;;1.37;;
1428;SDS011;708;51.442;7.016;2022-07-04T10:05:22;2.70;;;1.60;;
1428;SDS011;708;51.442;7.016;2022-07-04T10:07:50;1.70;;;1.00;;
1428;SDS011;708;51.442;7.016;2022-07-04T10:13:06;3.40;;;1.30;;
1428;SDS011;708;51.442;7.016;2022-07-04T10:15:36;24.20;;;1.60;;
1428;SDS011;708;51.442;7.016;2022-07-04T10:18:04;3.40;;;1.50;;
1428;SDS011;708;51.442;7.016;2022-07-04T10:20:32;1.80;;;0.90;;
1428;SDS011;708;51.442;7.016;2022-07-04T10:23:00;2.97;;;1.20;;
1428;SDS011;708;51.442;7.016;2022-07-04T10:25:27;3.90;;;1.47;;
1428;SDS011;708;51.442;7.016;2022-07-04T10:27:55;2.70;;;1.03;;
1428;SDS011;708;51.442;7.016;2022-07-04T10:30:24;4.10;;;1.83;;
1428;SDS011;708;51.442;7.016;2022-07-04T10:32:54;3.07;;;1.40;;
1428;SDS011;708;51.442;7.016;2022-07-04T10:38:12;2.40;;;1.20;;
1428;SDS011;708;51.442;7.016;2022-07-04T10:40:40;2.60;;;1.00;;
1428;SDS011;708;51.442;7.016;2022-07-04T10:46:33;2.93;;;1.27;;
1428;SDS011;708;51.442;7.016;2022-07-04T10:49:18;2.63;;;1.40;;
1428;SDS011;708;51.442;7.016;2022-07-04T10:51:50;2.33;;;1.27;;
1428;SDS011;708;51.442;7.016;2022-07-04T10:54:20;2.50;;;1.77;;
1428;SDS011;708;51.442;7.016;2022-07-04T10:56:48;2.87;;;1.50;;
1428;SDS011;708;51.442;7.016;2022-07-04T10:59:18;4.17;;;1.73;;
1428;SDS011;708;51.442;7.016;2022-07-04T11:01:51;2.63;;;1.30;;
1428;SDS011;708;51.442;7.016;2022-07-04T11:04:59;4.10;;;1.63;;
1428;SDS011;708;51.442;7.016;2022-07-04T11:10:24;2.37;;;1.53;;
1428;SDS011;708;51.442;7.016;2022-07-04T11:15:58;4.03;;;1.60;;
1428;SDS011;708;51.442;7.016;2022-07-04T11:18:40;2.37;;;1.20;;
1428;SDS011;708;51.442;7.016;2022-07-04T11:21:15;3.37;;;1.53;;
1428;SDS011;708;51.442;7.016;2022-07-04T11:23:52;7.23;;;1.20;;
1428;SDS011;708;51.442;7.016;2022-07-04T11:26:21;2.50;;;1.40;;
1428;SDS011;708;51.442;7.016;2022-07-04T11:28:53;1.83;;;1.10;;
1428;SDS011;708;51.442;7.016;2022-07-04T11:31:20;2.10;;;1.60;;
1428;SDS011;708;51.442;7.016;2022-07-04T11:33:53;2.90;;;1.33;;
1428;SDS011;708;51.442;7.016;2022-07-04T11:36:21;5.00;;;1.20;;
1428;SDS011;708;51.442;7.016;2022-07-04T11:38:51;2.63;;;1.10;;
1428;SDS011;708;51.442;7.016;2022-07-04T11:41:19;6.57;;;1.97;;
1428;SDS011;708;51.442;7.016;2022-07-04T11:44:06;2.57;;;1.00;;
1428;SDS011;708;51.442;7.016;2022-07-04T11:47:00;4.53;;;1.43;;
1428;SDS011;708;51.442;7.016;2022-07-04T11:49:32;13.10;;;4.27;;
1428;SDS011;708;51.442;7.016;2022-07-04T11:52:00;2.27;;;1.10;;
1428;SDS011;708;51.442;7.016;2022-07-04T11:54:27;2.23;;;1.20;;
1428;SDS011;708;51.442;7.016;2022-07-04T11:57:08;3.77;;;1.77;;
1428;SDS011;708;51.442;7.016;2022-07-04T11:59:52;3.90;;;1.67;;
1428;SDS011;708;51.442;7.016;2022-07-04T12:02:20;3.93;;;1.40;;
1428;SDS011;708;51.442;7.016;2022-07-04T12:04:49;9.53;;;2.47;;
1428;SDS011;708;51.442;7.016;2022-07-04T12:07:16;2.17;;;1.20;;
1428;SDS011;708;51.442;7.016;2022-07-04T12:09:45;3.13;;;1.20;;
1428;SDS011;708;51.442;7.016;2022-07-04T12:12:13;1.83;;;1.20;;
1428;SDS011;708;51.442;7.016;2022-07-04T12:14:55;2.10;;;1.33;;
1428;SDS011;708;51.442;7.016;2022-07-04T12:17:28;4.50;;;1.50;;
1428;SDS011;708;51.442;7.016;2022-07-04T12:19:58;4.07;;;1.37;;
1428;SDS011;708;51.442;7.016;2022-07-04T12:22:27;2.70;;;1.43;;
1428;SDS011;708;51.442;7.016;2022-07-04T12:24:58;2.63;;;1.53;;
1428;SDS011;708;51.442;7.016;2022-07-04T12:27:26;2.37;;;1.20;;
1428;SDS011;708;51.442;7.016;2022-07-04T12:29:54;2.23;;;1.30;;
1428;SDS011;708;51.442;7.016;2022-07-04T12:32:22;2.03;;;1.13;;
1428;SDS011;708;51.442;7.016;2022-07-04T12:34:49;4.40;;;1.40;;
1428;SDS011;708;51.442;7.016;2022-07-04T12:37:17;1.90;;;1.10;;
1428;SDS011;708;51.442;7.016;2022-07-04T12:39:44;3.70;;;1.53;;
1428;SDS011;708;51.442;7.016;2022-07-04T12:42:12;3.00;;;1.17;;
1428;SDS011;708;51.442;7.016;2022-07-04T12:44:41;1.47;;;0.87;;
1428;SDS011;708;51.442;7.016;2022-07-04T12:47:10;1.90;;;1.13;;
1428;SDS011;708;51.442;7.016;2022-07-04T12:49:41;1.80;;;1.10;;
1428;SDS011;708;51.442;7.016;2022-07-04T12:52:10;2.50;;;1.13;;
1428;SDS011;708;51.442;7.016;2022-07-04T12:54:42;2.27;;;1.40;;
1428;SDS011;708;51.442;7.016;2022-07-04T12:57:11;1.93;;;1.30;;
1428;SDS011;708;51.442;7.016;2022-07-04T12:59:40;2.13;;;1.60;;
1428;SDS011;708;51.442;7.016;2022-07-04T13:02:08;2.10;;;1.20;;
1428;SDS011;708;51.442;7.016;2022-07-04T13:04:37;3.07;;;1.33;;
1428;SDS011;708;51.442;7.016;2022-07-04T13:07:14;2.63;;;1.23;;
1428;SDS011;708;51.442;7.016;2022-07-04T13:09:43;2.67;;;1.40;;
1428;SDS011;708;51.442;7.016;2022-07-04T13:12:11;1.80;;;1.00;;
1428;SDS011;708;51.442;7.016;2022-07-04T13:14:50;3.50;;;1.37;;
1428;SDS011;708;51.442;7.016;2022-07-04T13:17:17;1.77;;;0.93;;
1428;SDS011;708;51.442;7.016;2022-07-04T13:19:43;3.07;;;1.17;;
1428;SDS011;708;51.442;7.016;2022-07-04T13:22:10;3.23;;;1.50;;
1428;SDS011;708;51.442;7.016;2022-07-04T13:24:37;2.70;;;1.10;;
1428;SDS011;708;51.442;7.016;2022-07-04T13:27:05;1.43;;;0.97;;
1428;SDS011;708;51.442;7.016;2022-07-04T13:29:32;2.47;;;1.23;;
1428;SDS011;708;51.442;7.016;2022-07-04T13:31:59;2.37;;;1.07;;
1428;SDS011;708;51.442;7.016;2022-07-04T13:34:26;2.47;;;1.20;;
1428;SDS011;708;51.442;7.016;2022-07-04T13:36:53;2.37;;;1.20;;
1428;SDS011;708;51.442;7.016;2022-07-04T13:39:21;2.27;;;1.30;;
1428;SDS011;708;51.442;7.016;2022-07-04T13:41:47;1.77;;;1.13;;
1428;SDS011;708;51.442;7.016;2022-07-04T13:44:16;2.47;;;1.47;;
1428;SDS011;708;51.442;7.016;2022-07-04T13:46:43;4.17;;;1.57;;
1428;SDS011;708;51.442;7.016;2022-07-04T13:49:10;2.30;;;1.43;;
1428;SDS011;708;51.442;7.016;2022-07-04T13:51:37;3.00;;;1.40;;
1428;SDS011;708;51.442;7.016;2022-07-04T13:54:05;2.90;;;1.60;;
1428;SDS011;708;51.442;7.016;2022-07-04T13:56:33;3.70;;;1.60;;
1428;SDS011;708;51.442;7.016;2022-07-04T13:59:00;2.13;;;1.20;;
1428;SDS011;708;51.442;7.016;2022-07-04T14:01:28;2.83;;;1.07;;
1428;SDS011;708;51.442;7.016;2022-07-04T14:03:55;2.43;;;1.00;;
1428;SDS011;708;51.442;7.016;2022-07-04T14:06:22;2.37;;;1.13;;
1428;SDS011;708;51.442;7.016;2022-07-04T14:08:49;2.70;;;1.27;;
1428;SDS011;708;51.442;7.016;2022-07-04T14:11:16;1.90;;;1.30;;
1428;SDS011;708;51.442;7.016;2022-07-04T14:13:43;3.10;;;1.30;;
1428;SDS011;708;51.442;7.016;2022-07-04T14:16:09;3.90;;;1.40;;
1428;SDS011;708;51.442;7.016;2022-07-04T14:18:38;2.73;;;1.30;;
1428;SDS011;708;51.442;7.016;2022-07-04T14:21:05;3.97;;;1.33;;
1428;SDS011;708;51.442;7.016;2022-07-04T14:23:31;3.20;;;1.20;;
1428;SDS011;708;51.442;7.016;2022-07-04T14:26:07;2.60;;;1.20;;
1428;SDS011;708;51.442;7.016;2022-07-04T14:28:35;3.17;;;1.10;;
1428;SDS011;708;51.442;7.016;2022-07-04T14:31:02;1.70;;;1.03;;
1428;SDS011;708;51.442;7.016;2022-07-04T14:33:30;3.00;;;1.37;;
1428;SDS011;708;51.442;7.016;2022-07-04T14:35:59;2.30;;;1.27;;
1428;SDS011;708;51.442;7.016;2022-07-04T14:38:26;3.03;;;1.20;;
1428;SDS011;708;51.442;7.016;2022-07-04T14:40:53;2.00;;;1.30;;
1428;SDS011;708;51.442;7.016;2022-07-04T14:43:20;1.60;;;1.10;;
1428;SDS011;708;51.442;7.016;2022-07-04T14:45:47;2.43;;;1.93;;
1428;SDS011;708;51.442;7.016;2022-07-04T14:48:14;5.10;;;1.87;;
1428;SDS011;708;51.442;7.016;2022-07-04T14:50:41;2.10;;;1.23;;
1428;SDS011;708;51.442;7.016;2022-07-04T14:53:10;4.77;;;1.30;;
1428;SDS011;708;51.442;7.016;2022-07-04T14:55:36;2.03;;;1.20;;
1428;SDS011;708;51.442;7.016;2022-07-04T14:58:03;2.80;;;1.47;;
1428;SDS011;708;51.442;7.016;2022-07-04T15:00:30;2.27;;;1.40;;
1428;SDS011;708;51.442;7.016;2022-07-04T15:02:57;5.20;;;1.60;;
1428;SDS011;708;51.442;7.016;2022-07-04T15:05:24;2.10;;;1.20;;
1428;SDS011;708;51.442;7.016;2022-07-04T15:07:50;2.70;;;1.30;;
1428;SDS011;708;51.442;7.016;2022-07-04T15:10:21;2.20;;;1.40;;
1428;SDS011;708;51.442;7.016;2022-07-04T15:12:49;2.07;;;1.67;;
1428;SDS011;708;51.442;7.016;2022-07-04T15:15:16;2.23;;;1.17;;
1428;SDS011;708;51.442;7.016;2022-07-04T15:17:45;1.70;;;1.07;;
1428;SDS011;708;51.442;7.016;2022-07-04T15:20:12;2.30;;;1.03;;
1428;SDS011;708;51.442;7.016;2022-07-04T15:22:57;2.00;;;1.20;;
1428;SDS011;708;51.442;7.016;2022-07-04T15:25:42;2.90;;;1.60;;
1428;SDS011;708;51.442;7.016;2022-07-04T15:28:09;3.27;;;1.60;;
1428;SDS011;708;51.442;7.016;2022-07-04T15:30:36;2.17;;;1.40;;
1428;SDS011;708;51.442;7.016;2022-07-04T15:33:03;2.87;;;1.30;;
1428;SDS011;708;51.442;7.016;2022-07-04T15:35:30;2.60;;;1.53;;
1428;SDS011;708;51.442;7.016;2022-07-04T15:37:57;5.30;;;1.73;;
1428;SDS011;708;51.442;7.016;2022-07-04T15:40:24;2.77;;;1.50;;
1428;SDS011;708;51.442;7.016;2022-07-04T15:42:52;2.40;;;1.47;;
1428;SDS011;708;51.442;7.016;2022-07-04T15:45:19;1.90;;;1.40;;
1428;SDS011;708;51.442;7.016;2022-07-04T15:47:46;2.10;;;1.00;;
1428;SDS011;708;51.442;7.016;2022-07-04T15:50:13;2.70;;;1.10;;
1428;SDS011;708;51.442;7.016;2022-07-04T15:52:40;9.43;;;2.33;;
1428;SDS011;708;51.442;7.016;2022-07-04T15:55:07;1.97;;;1.23;;
1428;SDS011;708;51.442;7.016;2022-07-04T15:57:34;2.13;;;1.20;;